Time;durP1;ratioP1;P1;durP2;ratioP2;P2;SDS_P1;SDS_P2;PMS_P1;PMS_P2;Temp;Humidity;BMP_temperature;BMP_pressure;BME280_temperature;BME280_humidity;BME280_pressure;Samples;Min_cycle;Max_cycle;Signal;HPM_P1;HPM_P2
2022/06/01 00:00:56;;;;;;;17.05;15.50;;;;;;;10.90;100.00;101269.31;5254175;28;20348;-69
2022/06/01 00:03:35;;;;;;;18.05;16.55;;;;;;;10.97;100.00;101270.50;5252925;28;20131;-68
2022/06/01 00:06:07;;;;;;;18.23;16.63;;;;;;;10.84;100.00;101273.28;5257776;28;20395;-68
2022/06/01 00:08:40;;;;;;;16.80;15.20;;;;;;;10.81;100.00;101273.50;5255121;28;20045;-68
2022/06/01 00:11:11;;;;;;;18.65;16.85;;;;;;;10.82;100.00;101276.97;5257433;28;20129;-68
2022/06/01 00:13:42;;;;;;;18.27;16.67;;;;;;;10.75;100.00;101276.59;5257292;28;20388;-70
2022/06/01 00:16:14;;;;;;;18.70;17.02;;;;;;;10.73;100.00;101282.94;5257089;28;20033;-68
2022/06/01 00:18:45;;;;;;;18.05;16.50;;;;;;;10.74;100.00;101271.50;5256255;28;20028;-67
2022/06/01 00:21:16;;;;;;;19.08;17.38;;;;;;;10.77;100.00;101279.13;5257011;28;20028;-67
2022/06/01 00:23:48;;;;;;;18.85;17.05;;;;;;;10.79;100.00;101279.81;5256700;28;20027;-67
2022/06/01 00:26:19;;;;;;;19.88;18.08;;;;;;;10.76;100.00;101274.81;5257384;28;20021;-67
2022/06/01 00:28:50;;;;;;;19.63;17.92;;;;;;;10.76;100.00;101282.66;5256680;28;20048;-68
2022/06/01 00:31:22;;;;;;;19.30;17.52;;;;;;;10.77;100.00;101277.31;5257253;28;20021;-68
2022/06/01 00:33:53;;;;;;;20.20;18.40;;;;;;;10.78;100.00;101272.91;5255467;28;20021;-67
2022/06/01 00:36:24;;;;;;;19.40;17.73;;;;;;;10.83;100.00;101289.09;5256917;28;20025;-68
2022/06/01 00:38:55;;;;;;;20.52;18.50;;;;;;;10.70;100.00;101271.72;5256639;28;20032;-68
2022/06/01 00:41:29;;;;;;;20.48;18.67;;;;;;;10.78;100.00;101283.41;5256573;28;20028;-68
2022/06/01 00:44:00;;;;;;;20.63;18.73;;;;;;;10.75;100.00;101278.38;5256170;28;20471;-68
2022/06/01 00:46:32;;;;;;;19.50;17.70;;;;;;;10.75;100.00;101278.38;5256834;28;20147;-68
2022/06/01 00:49:15;;;;;;;19.92;18.23;;;;;;;10.83;100.00;101274.22;5255465;28;20048;-68
2022/06/01 00:51:48;;;;;;;20.17;18.37;;;;;;;10.68;100.00;101275.41;5253985;28;20032;-68
2022/06/01 00:54:21;;;;;;;20.60;18.80;;;;;;;10.66;100.00;101270.31;5256659;28;20025;-69
2022/06/01 00:56:57;;;;;;;20.13;18.33;;;;;;;10.77;100.00;101282.56;5256252;28;20028;-68
2022/06/01 00:59:33;;;;;;;20.02;18.23;;;;;;;10.73;100.00;101275.06;5256446;28;20407;-68
2022/06/01 01:02:06;;;;;;;20.80;19.00;;;;;;;10.72;100.00;101284.72;5255742;28;20025;-68
2022/06/01 01:04:39;;;;;;;20.20;18.30;;;;;;;10.65;100.00;101278.28;5255870;28;20146;-68
2022/06/01 01:07:12;;;;;;;20.48;18.58;;;;;;;10.64;100.00;101287.91;5255410;28;20025;-68
2022/06/01 01:09:43;;;;;;;20.77;19.00;;;;;;;10.61;100.00;101282.13;5271869;22;20495;-67
2022/06/01 01:12:15;;;;;;;20.48;18.77;;;;;;;10.60;100.00;101278.63;5251167;28;20303;-67
2022/06/01 01:14:46;;;;;;;20.92;18.95;;;;;;;10.57;100.00;101280.66;5255693;28;20033;-67
2022/06/01 01:17:20;;;;;;;19.63;17.92;;;;;;;10.57;100.00;101278.91;5254316;28;20025;-68
2022/06/01 01:19:52;;;;;;;20.92;19.17;;;;;;;10.65;100.00;101283.53;5278945;28;20561;-67
2022/06/01 01:22:23;;;;;;;21.70;19.75;;;;;;;10.63;100.00;101273.16;5277592;28;20039;-67
2022/06/01 01:25:18;;;;;;;21.20;19.27;;;;;;;10.82;100.00;101269.09;5266865;28;20035;-67
2022/06/01 01:27:52;;;;;;;21.65;19.75;;;;;;;10.63;100.00;101267.09;5276522;28;20482;-67
2022/06/01 01:30:26;;;;;;;21.95;19.95;;;;;;;10.67;100.00;101265.91;5280306;28;20036;-67
2022/06/01 01:33:02;;;;;;;21.63;19.73;;;;;;;10.67;100.00;101276.38;5264446;28;20047;-67
2022/06/01 01:35:35;;;;;;;21.90;19.90;;;;;;;10.53;100.00;101267.00;5276245;28;20486;-67
2022/06/01 01:38:31;;;;;;;22.35;20.17;;;;;;;10.64;100.00;101260.88;5278697;28;20039;-68
2022/06/01 01:41:28;;;;;;;22.30;20.38;;;;;;;10.55;100.00;101259.81;5282729;28;20074;-67
2022/06/01 01:44:22;;;;;;;22.20;20.10;;;;;;;10.63;100.00;101267.91;5281982;28;20028;-67
2022/06/01 01:46:56;;;;;;;22.08;20.05;;;;;;;10.49;100.00;101262.91;5264433;28;20020;-67
2022/06/01 01:49:33;;;;;;;22.95;20.95;;;;;;;10.50;100.00;101275.09;5272963;28;20341;-67
2022/06/01 01:52:12;;;;;;;23.70;21.45;;;;;;;10.52;100.00;101269.72;5284394;28;20047;-67
2022/06/01 01:55:12;;;;;;;24.23;22.02;;;;;;;10.48;100.00;101272.56;5265976;28;20020;-67
2022/06/01 01:58:08;;;;;;;23.90;21.90;;;;;;;10.65;100.00;101271.25;5260233;28;20044;-67
2022/06/01 02:00:44;;;;;;;23.88;21.67;;;;;;;10.45;100.00;101271.97;5277900;28;20491;-68
2022/06/01 02:03:57;;;;;;;25.40;23.10;;;;;;;10.60;100.00;101280.41;5285158;28;20108;-67
2022/06/01 02:06:37;;;;;;;25.63;23.27;;;;;;;10.40;100.00;101264.47;5275968;28;20064;-68
2022/06/01 02:09:13;;;;;;;24.83;22.63;;;;;;;10.38;100.00;101281.25;5283386;28;20055;-67
2022/06/01 02:14:53;;;;;;;25.77;23.38;;;;;;;10.38;100.00;101276.00;5282883;28;20126;-68
2022/06/01 02:17:38;;;;;;;27.17;24.85;;;;;;;10.33;100.00;101280.78;5275836;28;20059;-68
2022/06/01 02:20:15;;;;;;;26.05;23.67;;;;;;;10.23;100.00;101270.97;5261499;28;20618;-67
2022/06/01 02:22:47;;;;;;;24.33;22.15;;;;;;;10.16;100.00;101274.19;5293412;28;20027;-68
2022/06/01 02:25:19;;;;;;;26.17;23.77;;;;;;;10.14;100.00;101271.66;5280209;28;20410;-67
2022/06/01 02:27:52;;;;;;;26.48;23.80;;;;;;;10.14;100.00;101279.53;5274293;28;20028;-68
2022/06/01 02:30:27;;;;;;;27.73;24.98;;;;;;;10.12;100.00;101280.63;5275056;28;20032;-67
2022/06/01 02:33:02;;;;;;;25.92;23.48;;;;;;;10.08;100.00;101280.00;5254386;28;20040;-67
2022/06/01 02:35:38;;;;;;;25.80;23.30;;;;;;;10.04;100.00;101277.72;5274570;28;20040;-67
2022/06/01 02:38:15;;;;;;;26.42;23.98;;;;;;;10.06;100.00;101276.66;5259790;28;20469;-68
2022/06/01 02:40:47;;;;;;;25.85;23.45;;;;;;;10.01;100.00;101277.97;5285299;28;20131;-67
2022/06/01 02:43:19;;;;;;;23.77;21.58;;;;;;;9.99;100.00;101278.06;5281617;28;20031;-67
2022/06/01 02:45:50;;;;;;;26.45;23.95;;;;;;;9.95;100.00;101271.41;5277945;28;20032;-68
2022/06/01 02:48:21;;;;;;;24.73;22.17;;;;;;;9.93;100.00;101273.31;5280194;28;20470;-67
2022/06/01 02:50:52;;;;;;;24.15;21.83;;;;;;;9.91;100.00;101268.19;5277886;28;20024;-67
2022/06/01 02:53:24;;;;;;;24.48;22.33;;;;;;;9.87;100.00;101271.97;5282031;28;20023;-68
2022/06/01 02:55:57;;;;;;;25.27;22.92;;;;;;;9.87;100.00;101277.22;5279509;28;20027;-68
2022/06/01 02:58:28;;;;;;;23.73;21.33;;;;;;;9.83;100.00;101278.38;5288974;28;20032;-67
2022/06/01 03:00:59;;;;;;;23.70;21.23;;;;;;;9.82;100.00;101273.28;5282762;28;20527;-67
2022/06/01 03:03:30;;;;;;;23.92;21.52;;;;;;;9.78;100.00;101270.06;5272912;28;20119;-68
2022/06/01 03:06:03;;;;;;;22.65;20.45;;;;;;;9.76;100.00;101269.31;5275633;28;20024;-67
2022/06/01 03:08:34;;;;;;;22.23;20.23;;;;;;;9.72;100.00;101270.50;5283545;28;20048;-67
2022/06/01 03:11:06;;;;;;;23.00;20.90;;;;;;;9.69;100.00;101275.97;5278630;28;20036;-67
2022/06/01 03:13:37;;;;;;;23.00;20.80;;;;;;;9.68;100.00;101271.69;5276490;28;20276;-68
2022/06/01 03:16:09;;;;;;;23.20;21.08;;;;;;;9.57;100.00;101256.78;5283151;28;20038;-68
2022/06/01 03:18:40;;;;;;;22.20;20.08;;;;;;;9.62;100.00;101272.13;5265936;28;20043;-67
2022/06/01 03:21:11;;;;;;;23.75;21.45;;;;;;;9.57;100.00;101271.63;5259151;28;20039;-67
2022/06/01 03:23:42;;;;;;;24.08;21.67;;;;;;;9.54;100.00;101277.09;5282847;28;20028;-68
2022/06/01 03:26:14;;;;;;;23.77;21.27;;;;;;;9.48;100.00;101262.69;5282828;28;20059;-67
2022/06/01 03:28:45;;;;;;;23.67;21.33;;;;;;;9.47;100.00;101280.19;5278053;28;20077;-67
2022/06/01 03:31:16;;;;;;;22.60;20.45;;;;;;;9.44;100.00;101269.09;5281365;28;20025;-67
2022/06/01 03:33:48;;;;;;;21.83;19.63;;;;;;;9.46;100.00;101275.88;5278118;28;20031;-67
2022/06/01 03:36:21;;;;;;;22.13;19.73;;;;;;;9.43;100.00;101280.50;5272599;28;20032;-68
2022/06/01 03:38:52;;;;;;;22.08;19.80;;;;;;;9.46;100.00;101283.72;5273832;28;20335;-68
2022/06/01 03:41:27;;;;;;;21.30;19.30;;;;;;;9.40;100.00;101275.50;5281904;28;20402;-67
2022/06/01 03:46:48;;;;;;;21.17;19.15;;;;;;;9.39;100.00;101276.44;5290241;28;20040;-67
2022/06/01 03:49:20;;;;;;;20.52;18.48;;;;;;;9.38;100.00;101275.59;5283064;28;20025;-68
2022/06/01 03:51:51;;;;;;;20.92;18.92;;;;;;;9.37;100.00;101273.94;5286951;28;20016;-68
2022/06/01 03:54:22;;;;;;;20.17;18.20;;;;;;;9.39;100.00;101279.88;5289387;28;20383;-68
2022/06/01 03:56:54;;;;;;;19.95;17.98;;;;;;;9.39;100.00;101284.28;5283986;28;20218;-68
2022/06/01 03:59:25;;;;;;;20.58;18.50;;;;;;;9.37;100.00;101284.41;5271553;28;20075;-67
2022/06/01 04:02:01;;;;;;;20.10;17.98;;;;;;;9.43;100.00;101273.50;5273992;28;20391;-68
2022/06/01 04:04:34;;;;;;;19.60;17.30;;;;;;;9.37;100.00;101283.56;5288327;28;20028;-67
2022/06/01 04:07:05;;;;;;;19.25;17.23;;;;;;;9.40;100.00;101281.56;5275657;28;20505;-67
2022/06/01 04:09:36;;;;;;;19.73;17.73;;;;;;;9.44;100.00;101282.19;5263301;28;20048;-67
2022/06/01 04:12:08;;;;;;;20.10;17.85;;;;;;;9.46;100.00;101288.13;5278313;28;20032;-67
2022/06/01 04:14:39;;;;;;;18.85;16.92;;;;;;;9.48;100.00;101284.44;5263781;28;20056;-68
2022/06/01 04:17:10;;;;;;;18.08;16.33;;;;;;;9.46;100.00;101283.72;5270326;28;20085;-67
2022/06/01 04:19:42;;;;;;;20.52;17.92;;;;;;;9.48;100.00;101288.84;5276488;28;20115;-68
2022/06/01 04:22:14;;;;;;;19.20;15.82;;;;;;;9.48;100.00;101286.22;5285996;28;20028;-67
2022/06/01 04:24:46;;;;;;;18.40;16.48;;;;;;;9.49;100.00;101291.34;5282670;28;20043;-67
2022/06/01 04:27:17;;;;;;;18.38;16.50;;;;;;;9.47;100.00;101284.53;5280523;28;20036;-68
2022/06/01 04:29:48;;;;;;;19.13;16.63;;;;;;;9.50;100.00;101290.38;5284305;28;20055;-67
2022/06/01 04:32:27;;;;;;;19.15;15.68;;;;;;;9.61;100.00;101288.78;5282296;28;20025;-68
2022/06/01 04:34:59;;;;;;;18.33;16.13;;;;;;;9.54;100.00;101290.16;5279556;28;20403;-67
2022/06/01 04:37:31;;;;;;;18.70;16.73;;;;;;;9.61;100.00;101296.63;5271774;28;20032;-67
2022/06/01 04:40:03;;;;;;;18.38;16.42;;;;;;;9.63;100.00;101302.59;5289925;28;20020;-67
2022/06/01 04:42:34;;;;;;;17.60;15.68;;;;;;;9.62;100.00;101293.91;5285418;28;20130;-67
2022/06/01 04:45:09;;;;;;;17.85;16.10;;;;;;;9.68;100.00;101290.81;5273891;28;20043;-67
2022/06/01 04:47:41;;;;;;;17.42;15.38;;;;;;;9.72;100.00;101296.66;5271027;28;20020;-67
2022/06/01 04:50:12;;;;;;;17.58;15.70;;;;;;;9.72;100.00;101299.28;5283417;28;20487;-68
2022/06/01 04:52:43;;;;;;;19.75;16.23;;;;;;;9.70;100.00;101296.78;5281218;28;20495;-68
2022/06/01 04:55:15;;;;;;;18.13;16.35;;;;;;;9.71;100.00;101303.69;5279394;28;20032;-68
2022/06/01 04:57:46;;;;;;;17.42;15.50;;;;;;;9.81;100.00;101309.09;5266687;28;20386;-68
2022/06/01 05:00:18;;;;;;;15.98;14.30;;;;;;;9.84;100.00;101308.00;5265899;28;20031;-68
2022/06/01 05:02:49;;;;;;;17.45;15.68;;;;;;;9.91;100.00;101310.06;5267490;28;20026;-68
2022/06/01 05:05:20;;;;;;;18.42;15.40;;;;;;;9.91;100.00;101310.06;5291285;28;20035;-68
2022/06/01 05:07:52;;;;;;;14.75;13.32;;;;;;;9.95;100.00;101311.50;5272628;28;20024;-68
2022/06/01 05:10:24;;;;;;;15.27;13.70;;;;;;;9.95;100.00;101308.88;5272328;28;20457;-68
2022/06/01 05:12:55;;;;;;;15.20;13.68;;;;;;;10.02;100.00;101303.19;5287224;28;20017;-69
2022/06/01 05:15:26;;;;;;;16.90;14.40;;;;;;;10.06;100.00;101297.59;5270327;28;20024;-68
2022/06/01 05:17:57;;;;;;;14.52;13.05;;;;;;;10.09;100.00;101297.38;5277179;28;20506;-68
2022/06/01 05:20:29;;;;;;;14.73;13.05;;;;;;;10.13;100.00;101297.97;5283088;28;20086;-68
2022/06/01 05:23:00;;;;;;;20.17;14.38;;;;;;;10.20;100.00;101297.41;5287712;28;20022;-68
2022/06/01 05:25:31;;;;;;;15.32;13.57;;;;;;;10.23;100.00;101304.19;5282862;28;20020;-68
2022/06/01 05:28:03;;;;;;;18.83;14.77;;;;;;;10.30;100.00;101302.78;5267054;28;20024;-68
2022/06/01 05:30:34;;;;;;;18.60;13.80;;;;;;;10.39;100.00;101307.34;5268068;28;20033;-69
2022/06/01 05:33:06;;;;;;;16.98;13.38;;;;;;;10.42;100.00;101301.88;5276799;28;20546;-69
2022/06/01 05:35:37;;;;;;;16.48;13.48;;;;;;;10.48;100.00;101309.22;5263695;28;20505;-68
2022/06/01 05:38:08;;;;;;;14.82;13.30;;;;;;;10.56;100.00;101306.03;5282213;28;20028;-68
2022/06/01 05:40:39;;;;;;;18.83;14.05;;;;;;;10.66;100.00;101298.28;5288631;28;20028;-68
2022/06/01 05:43:13;;;;;;;16.00;13.30;;;;;;;10.74;100.00;101302.94;5287627;28;20031;-68
2022/06/01 05:45:45;;;;;;;17.05;13.13;;;;;;;10.80;100.00;101302.47;5265922;28;20521;-69
2022/06/01 05:48:19;;;;;;;16.42;12.90;;;;;;;10.87;100.00;101301.88;5279925;28;20083;-68
2022/06/01 05:50:51;;;;;;;16.77;13.23;;;;;;;10.95;100.00;101302.09;5276865;28;20059;-68
2022/06/01 05:53:22;;;;;;;15.23;12.90;;;;;;;11.08;100.00;101308.97;5278588;28;20111;-69
2022/06/01 05:55:53;;;;;;;14.82;13.10;;;;;;;11.17;100.00;101305.59;5268577;28;20056;-69
2022/06/01 05:58:27;;;;;;;15.88;13.80;;;;;;;11.29;100.00;101309.91;5272193;28;20028;-69
2022/06/01 06:01:06;;;;;;;15.52;13.25;;;;;;;11.47;100.00;101307.56;5250566;28;20024;-68
2022/06/01 06:03:38;;;;;;;15.18;11.98;;;;;;;11.48;100.00;101304.00;5265423;28;20479;-69
2022/06/01 06:06:12;;;;;;;17.55;14.30;;;;;;;11.66;100.00;101305.09;5257399;28;20039;-69
2022/06/01 06:08:56;;;;;;;16.85;12.73;;;;;;;11.88;100.00;101306.00;5270119;28;20029;-69
2022/06/01 06:11:33;;;;;;;15.27;12.35;;;;;;;12.02;100.00;101304.84;5274128;28;20403;-69
2022/06/01 06:14:06;;;;;;;16.70;13.38;;;;;;;12.10;100.00;101305.03;5241058;28;20029;-69
2022/06/01 06:16:42;;;;;;;13.90;12.15;;;;;;;12.26;100.00;101313.28;5274205;28;20390;-69
2022/06/01 06:19:16;;;;;;;15.38;12.02;;;;;;;12.32;100.00;101302.28;5270906;28;20554;-68
2022/06/01 06:21:48;;;;;;;13.25;11.95;;;;;;;12.43;100.00;101311.88;5270328;28;20031;-70
2022/06/01 06:24:21;;;;;;;12.32;10.88;;;;;;;12.54;100.00;101317.03;5261078;28;20391;-69
2022/06/01 06:26:52;;;;;;;16.70;12.25;;;;;;;12.57;100.00;101316.75;5251209;28;20481;-69
2022/06/01 06:29:24;;;;;;;13.60;11.40;;;;;;;12.72;100.00;101333.00;5273037;28;20056;-69
2022/06/01 06:31:55;;;;;;;16.73;11.52;;;;;;;12.85;100.00;101333.63;5274338;28;20082;-69
2022/06/01 06:34:27;;;;;;;16.23;11.32;;;;;;;13.00;100.00;101334.09;5272095;28;20517;-69
2022/06/01 06:36:58;;;;;;;12.30;10.98;;;;;;;13.07;100.00;101342.28;5267184;28;20386;-69
2022/06/01 06:39:30;;;;;;;12.10;10.45;;;;;;;13.18;100.00;101349.22;5283057;28;20041;-69
2022/06/01 06:42:01;;;;;;;11.15;10.00;;;;;;;13.28;100.00;101353.59;5279006;28;20024;-69
2022/06/01 06:44:34;;;;;;;11.55;10.35;;;;;;;13.42;100.00;101355.00;5281882;28;20028;-69
2022/06/01 06:47:06;;;;;;;15.40;10.35;;;;;;;13.56;100.00;101357.25;5262024;28;20020;-69
2022/06/01 06:49:37;;;;;;;14.57;9.80;;;;;;;13.70;100.00;101348.09;5259069;28;20592;-69
2022/06/01 06:52:09;;;;;;;11.02;9.93;;;;;;;13.80;100.00;101356.84;5267086;28;20029;-69
2022/06/01 06:54:40;;;;;;;12.10;10.57;;;;;;;13.84;100.00;101362.66;5281071;28;20029;-69
2022/06/01 06:57:11;;;;;;;13.68;9.48;;;;;;;13.88;100.00;101356.97;5260514;28;20474;-70
2022/06/01 06:59:43;;;;;;;13.82;9.57;;;;;;;14.05;100.00;101376.53;5274943;28;20466;-69
2022/06/01 07:02:16;;;;;;;12.35;9.57;;;;;;;14.18;100.00;101364.88;5265440;28;20035;-69
2022/06/01 07:04:47;;;;;;;12.27;9.27;;;;;;;14.26;100.00;101364.97;5273640;28;20040;-70
2022/06/01 07:07:18;;;;;;;11.98;8.65;;;;;;;14.24;100.00;101359.00;5282558;28;20059;-69
2022/06/01 07:09:50;;;;;;;9.82;8.48;;;;;;;14.41;100.00;101360.09;5264067;28;20044;-68
2022/06/01 07:12:22;;;;;;;9.57;8.43;;;;;;;14.56;100.00;101369.25;5263940;28;20066;-70
2022/06/01 07:14:53;;;;;;;9.48;8.27;;;;;;;14.65;100.00;101372.81;5273871;28;20359;-71
2022/06/01 07:17:25;;;;;;;11.18;8.48;;;;;;;14.69;100.00;101363.66;5275361;28;20106;-68
2022/06/01 07:19:56;;;;;;;13.07;9.27;;;;;;;14.55;100.00;101375.50;5273666;28;20033;-69
2022/06/01 07:22:28;;;;;;;8.55;7.75;;;;;;;14.54;100.00;101372.00;5281330;28;20025;-68
2022/06/01 07:24:59;;;;;;;13.10;9.35;;;;;;;14.73;100.00;101357.09;5284611;28;20024;-68
2022/06/01 07:27:30;;;;;;;9.40;8.40;;;;;;;14.90;100.00;101366.91;5273745;28;20031;-71
2022/06/01 07:30:06;;;;;;;11.73;8.90;;;;;;;14.99;100.00;101375.75;5270097;28;20028;-68
2022/06/01 07:32:37;;;;;;;9.25;7.68;;;;;;;15.08;100.00;101370.44;5270774;28;20016;-68
2022/06/01 07:35:09;;;;;;;10.45;8.07;;;;;;;15.13;100.00;101366.53;5283744;28;20039;-69
2022/06/01 07:43:22;;;;;;;9.07;6.25;;;;;;;15.56;100.00;101374.56;5278206;28;20016;-69
2022/06/01 07:45:53;;;;;;;8.30;5.95;;;;;;;15.79;100.00;101369.72;5273036;28;20283;-68
2022/06/01 07:48:25;;;;;;;4.95;4.35;;;;;;;15.84;100.00;101369.28;5279401;28;20081;-69
2022/06/01 07:50:56;;;;;;;6.82;5.47;;;;;;;16.03;100.00;101370.94;5270638;28;20025;-71
2022/06/01 07:53:27;;;;;;;6.00;4.30;;;;;;;16.19;100.00;101371.06;5275231;28;20031;-68
2022/06/01 07:55:59;;;;;;;5.85;4.90;;;;;;;16.23;100.00;101376.84;5287760;28;20024;-69
2022/06/01 07:58:30;;;;;;;8.00;5.18;;;;;;;16.45;100.00;101371.06;5263559;28;20024;-70
2022/06/01 08:01:03;;;;;;;6.00;5.18;;;;;;;16.61;100.00;101369.50;5269689;28;20040;-68
2022/06/01 08:03:35;;;;;;;5.65;5.10;;;;;;;16.82;100.00;101374.44;5269266;28;20025;-69
2022/06/01 08:06:06;;;;;;;5.97;5.38;;;;;;;17.16;100.00;101372.63;5271894;28;20052;-71
2022/06/01 08:08:37;;;;;;;8.18;4.82;;;;;;;17.02;100.00;101375.88;5249407;28;20048;-70
2022/06/01 08:11:09;;;;;;;7.00;5.03;;;;;;;16.76;100.00;101374.09;5272305;28;20032;-69
2022/06/01 08:13:41;;;;;;;9.07;5.93;;;;;;;16.76;100.00;101382.03;5283661;28;20024;-69
2022/06/01 08:16:13;;;;;;;6.07;4.77;;;;;;;16.71;100.00;101368.41;5283424;28;20490;-68
2022/06/01 08:18:45;;;;;;;7.65;3.58;;;;;;;16.93;100.00;101379.44;5278819;28;20055;-68
2022/06/01 08:21:16;;;;;;;4.97;4.00;;;;;;;16.97;100.00;101389.59;5272929;28;20047;-71
2022/06/01 08:23:47;;;;;;;5.50;4.45;;;;;;;17.32;100.00;101381.59;5272921;28;20020;-69
2022/06/01 08:26:19;;;;;;;6.43;4.20;;;;;;;17.44;100.00;101383.78;5275135;28;20143;-71
2022/06/01 08:28:50;;;;;;;4.35;3.67;;;;;;;17.47;100.00;101374.69;5273937;28;20109;-70
2022/06/01 08:31:26;;;;;;;4.85;3.60;;;;;;;17.60;100.00;101372.38;5261007;28;20028;-69
2022/06/01 08:33:59;;;;;;;4.93;3.85;;;;;;;17.73;100.00;101369.28;5263995;28;20475;-69
2022/06/01 08:36:32;;;;;;;5.45;3.70;;;;;;;18.08;100.00;101365.50;5275644;28;20474;-71
2022/06/01 08:39:03;;;;;;;4.38;3.63;;;;;;;18.00;100.00;101368.16;5266302;28;20032;-69
2022/06/01 08:41:37;;;;;;;7.03;3.75;;;;;;;17.99;100.00;101363.81;5259384;28;20360;-71
2022/06/01 08:44:30;;;;;;;4.40;3.13;;;;;;;17.84;100.00;101365.47;5271966;28;20081;-68
2022/06/01 08:47:08;;;;;;;5.65;3.05;;;;;;;17.51;100.00;101368.91;5273336;28;20085;-70
2022/06/01 08:49:40;;;;;;;4.55;3.00;;;;;;;17.63;100.00;101368.59;5289212;28;20133;-69
2022/06/01 08:52:12;;;;;;;4.57;2.65;;;;;;;17.91;100.00;101361.16;5282917;28;20115;-70
2022/06/01 08:54:43;;;;;;;6.95;3.38;;;;;;;18.16;100.00;101364.66;5264041;28;20055;-69
2022/06/01 08:57:22;;;;;;;5.20;2.60;;;;;;;18.64;100.00;101365.56;5283808;28;20497;-70
2022/06/01 09:00:09;;;;;;;4.53;2.70;;;;;;;18.69;100.00;101372.03;5276884;28;20028;-70
2022/06/01 09:03:09;;;;;;;3.05;2.10;;;;;;;19.07;100.00;101374.91;5272969;28;20047;-69
2022/06/01 09:05:48;;;;;;;3.22;2.33;;;;;;;18.78;100.00;101377.31;5273783;28;20406;-71
2022/06/01 09:08:42;;;;;;;4.45;2.60;;;;;;;18.65;100.00;101381.31;5272706;28;20126;-70
2022/06/01 09:11:19;;;;;;;3.05;2.15;;;;;;;18.72;100.00;101376.19;5280525;28;20503;-68
2022/06/01 09:13:59;;;;;;;5.95;2.70;;;;;;;18.81;100.00;101371.69;5262332;28;20032;-69
2022/06/01 09:16:49;;;;;;;7.00;2.80;;;;;;;19.08;100.00;101373.06;5287481;28;20163;-71
2022/06/01 09:22:38;;;;;;;4.40;2.92;;;;;;;18.77;100.00;101376.50;5284681;28;20029;-69
2022/06/01 09:25:15;;;;;;;4.28;3.25;;;;;;;19.13;100.00;101371.56;5279633;28;20800;-70
2022/06/01 09:27:52;;;;;;;6.32;3.20;;;;;;;19.35;100.00;101374.41;5259597;28;20035;-69
2022/06/01 09:30:37;;;;;;;6.03;3.83;;;;;;;19.51;100.00;101376.16;5280987;28;20116;-69
2022/06/01 09:33:28;;;;;;;5.15;3.78;;;;;;;19.30;100.00;101382.91;5260718;28;20361;-68
2022/06/01 09:36:08;;;;;;;4.03;3.63;;;;;;;18.87;100.00;101393.06;5274363;28;20052;-70
2022/06/01 09:38:52;;;;;;;6.53;3.75;;;;;;;18.69;100.00;101385.28;5260459;28;20503;-68
2022/06/01 09:41:31;;;;;;;7.03;3.38;;;;;;;18.50;100.00;101390.16;5277710;28;20029;-70
2022/06/01 09:44:10;;;;;;;4.45;3.03;;;;;;;18.34;100.00;101402.44;5276321;28;20124;-68
2022/06/01 09:46:53;;;;;;;4.57;3.10;;;;;;;18.11;100.00;101391.69;5254212;28;20024;-68
2022/06/01 09:49:42;;;;;;;4.35;3.03;;;;;;;18.29;100.00;101383.53;5278794;28;20111;-69
2022/06/01 09:52:26;;;;;;;3.55;2.33;;;;;;;18.10;100.00;101384.69;5274156;28;20036;-69
2022/06/01 09:55:15;;;;;;;3.45;1.90;;;;;;;17.96;100.00;101393.34;5265756;28;20127;-68
2022/06/01 10:06:05;;;;;;;3.25;1.90;;;;;;;17.94;100.00;101395.31;5267867;28;20024;-68
2022/06/01 10:07:29;;;;;;;2.00;1.53;;;;;;;16.98;100.00;101423.00;5276138;28;20036;-68
2022/06/01 10:10:04;;;;;;;3.15;2.10;;;;;;;16.50;100.00;101440.19;5269654;28;20040;-68
2022/06/01 10:12:47;;;;;;;3.47;2.28;;;;;;;16.36;100.00;101437.25;5275048;28;20391;-68
2022/06/01 10:15:40;;;;;;;3.85;3.00;;;;;;;16.24;100.00;101453.38;5267254;28;20074;-67
2022/06/01 10:18:17;;;;;;;5.50;3.60;;;;;;;15.76;100.00;101459.03;5279568;28;20079;-68
2022/06/01 10:21:05;;;;;;;4.00;3.60;;;;;;;15.46;100.00;101462.78;5274990;28;20035;-69
2022/06/01 10:23:50;;;;;;;4.38;3.40;;;;;;;15.00;100.00;101460.06;5272009;28;20029;-71
2022/06/01 10:26:36;;;;;;;5.50;3.30;;;;;;;14.71;100.00;101446.09;5278439;28;20028;-70
2022/06/01 10:29:15;;;;;;;4.32;2.53;;;;;;;14.38;100.00;101442.09;5254489;28;20079;-71
2022/06/01 10:31:52;;;;;;;5.00;2.70;;;;;;;14.14;100.00;101446.00;5277360;28;20029;-70
2022/06/01 10:34:31;;;;;;;2.78;2.22;;;;;;;14.11;100.00;101447.09;5271632;28;20564;-70
2022/06/01 10:37:23;;;;;;;5.40;2.65;;;;;;;14.22;100.00;101442.66;5266624;28;20039;-70
2022/06/01 10:40:03;;;;;;;3.60;2.95;;;;;;;14.39;100.00;101439.31;5246745;28;20029;-69
2022/06/01 10:43:19;;;;;;;3.83;3.10;;;;;;;14.81;100.00;101437.19;5256547;28;20033;-69
2022/06/01 10:46:03;;;;;;;3.20;2.55;;;;;;;15.09;100.00;101437.25;5258030;28;20028;-69
2022/06/01 10:48:42;;;;;;;3.75;3.10;;;;;;;15.44;100.00;101436.50;5283246;28;20179;-71
2022/06/01 10:51:18;;;;;;;3.58;3.03;;;;;;;15.67;100.00;101442.25;5270500;28;20028;-68
2022/06/01 10:54:04;;;;;;;6.85;2.58;;;;;;;16.02;100.00;101444.09;5269342;28;20033;-69
2022/06/01 10:56:35;;;;;;;4.47;2.60;;;;;;;15.95;100.00;101450.16;5262243;28;20115;-70
2022/06/01 10:59:12;;;;;;;4.30;2.95;;;;;;;16.00;100.00;101450.50;5272802;28;20166;-69
2022/06/01 11:02:23;;;;;;;4.13;2.58;;;;;;;16.21;100.00;101444.91;5274803;28;20094;-69
2022/06/01 11:05:13;;;;;;;3.00;2.47;;;;;;;15.93;100.00;101449.44;5273470;28;20404;-69
2022/06/01 11:08:00;;;;;;;3.67;2.67;;;;;;;15.68;100.00;101443.94;5266309;28;20062;-69
2022/06/01 11:10:56;;;;;;;2.78;2.20;;;;;;;15.50;100.00;101448.31;5273409;28;20831;-71
2022/06/01 11:13:48;;;;;;;3.05;1.95;;;;;;;15.42;100.00;101446.41;5279935;28;20024;-69
2022/06/01 11:16:51;;;;;;;3.15;1.90;;;;;;;15.36;100.00;101444.34;5286792;28;20036;-70
2022/06/01 11:19:46;;;;;;;2.95;2.13;;;;;;;15.57;100.00;101431.72;5252576;28;20035;-69
2022/06/01 11:22:38;;;;;;;2.92;2.17;;;;;;;15.55;100.00;101438.13;5269778;28;20531;-70
2022/06/01 11:25:39;;;;;;;3.70;2.60;;;;;;;15.84;100.00;101437.16;5271865;28;20025;-68
2022/06/01 11:28:41;;;;;;;3.60;2.30;;;;;;;16.35;100.00;101438.25;5274568;28;20459;-69
2022/06/01 11:31:25;;;;;;;3.63;1.90;;;;;;;16.36;100.00;101447.84;5274623;28;20600;-70
2022/06/01 11:33:57;;;;;;;3.38;1.95;;;;;;;16.59;100.00;101451.66;5266127;28;20029;-70
2022/06/01 11:36:57;;;;;;;3.37;1.70;;;;;;;16.82;100.00;101445.88;5268002;28;20035;-71
2022/06/01 11:39:46;;;;;;;2.95;1.52;;;;;;;16.96;100.00;101445.31;5274214;28;20111;-68
2022/06/01 11:42:32;;;;;;;4.55;1.73;;;;;;;17.08;100.00;101453.81;5281032;28;20024;-69
2022/06/01 11:45:07;;;;;;;2.30;1.90;;;;;;;16.61;100.00;101460.28;5275243;28;20033;-70
2022/06/01 11:48:06;;;;;;;2.95;2.28;;;;;;;16.77;100.00;101454.28;5274496;28;20085;-72
2022/06/01 11:51:12;;;;;;;4.22;2.40;;;;;;;17.08;100.00;101456.44;5268269;28;20105;-70
2022/06/01 11:53:55;;;;;;;4.30;2.38;;;;;;;17.41;100.00;101454.78;5270693;28;20060;-69
2022/06/01 11:56:30;;;;;;;2.65;2.42;;;;;;;17.72;100.00;101452.41;5280350;28;20028;-71
2022/06/01 11:59:14;;;;;;;3.17;2.15;;;;;;;18.05;100.00;101441.88;5271897;28;20029;-70
2022/06/01 12:01:56;;;;;;;3.00;2.22;;;;;;;18.17;100.00;101443.22;5277003;28;20391;-70
2022/06/01 12:04:36;;;;;;;2.70;2.23;;;;;;;18.61;100.00;101435.75;5281162;28;20029;-70
2022/06/01 12:07:19;;;;;;;2.70;2.03;;;;;;;18.46;100.00;101442.72;5273977;28;20028;-70
2022/06/01 12:10:05;;;;;;;2.78;2.05;;;;;;;18.62;100.00;101437.38;5283050;28;20079;-69
2022/06/01 12:12:36;;;;;;;2.25;2.00;;;;;;;18.56;100.00;101439.88;5286210;28;20124;-70